Time;durP1;ratioP1;P1;durP2;ratioP2;P2;SDS_P1;SDS_P2;PMS_P1;PMS_P2;Temp;Humidity;BMP_temperature;BMP_pressure;BME280_temperature;BME280_humidity;BME280_pressure;Samples;Min_cycle;Max_cycle;Signal;HPM_P1;HPM_P2
2023/03/19 00:01:51;;;;;;;;;;;;;;;10.33;94.24;101008.78;5019457;28;20214;-65
2023/03/19 00:04:17;;;;;;;;;;;;;;;10.32;94.04;101009.78;5027634;28;19913;-65
2023/03/19 00:06:42;;;;;;;;;;;;;;;10.31;94.28;101016.06;5024487;28;20381;-66
2023/03/19 00:09:08;;;;;;;;;;;;;;;10.30;94.49;101025.03;5025889;28;20563;-65
2023/03/19 00:11:33;;;;;;;;;;;;;;;10.28;94.57;101016.41;5024760;28;19923;-64
2023/03/19 00:13:58;;;;;;;;;;;;;;;10.27;94.29;101017.41;5025476;28;19952;-65
2023/03/19 00:16:23;;;;;;;;;;;;;;;10.27;94.24;101020.06;5026189;28;19913;-65
2023/03/19 00:18:48;;;;;;;;;;;;;;;10.23;94.27;101015.09;5026615;28;19940;-64
2023/03/19 00:21:14;;;;;;;;;;;;;;;10.22;94.47;101023.22;5018924;28;19913;-65
2023/03/19 00:23:39;;;;;;;;;;;;;;;10.22;94.53;101015.25;5026480;28;19924;-65
2023/03/19 00:26:05;;;;;;;;;;;;;;;10.22;94.07;101015.25;5023688;28;19914;-65
2023/03/19 00:28:30;;;;;;;;;;;;;;;10.23;94.41;101022.22;5020741;28;19971;-65
2023/03/19 00:30:56;;;;;;;;;;;;;;;10.21;94.54;101017.06;5024902;28;19917;-65
2023/03/19 00:33:21;;;;;;;;;;;;;;;10.22;94.70;101023.22;5023785;28;19979;-65
2023/03/19 00:35:46;;;;;;;;;;;;;;;10.20;94.57;101028.69;5027049;28;19917;-65
2023/03/19 00:38:11;;;;;;;;;;;;;;;10.20;94.81;101027.81;5027166;28;19921;-65
2023/03/19 00:40:37;;;;;;;;;;;;;;;10.20;94.92;101035.78;5022256;28;19917;-65
2023/03/19 00:43:02;;;;;;;;;;;;;;;10.20;95.14;101026.03;5022987;28;20004;-65
2023/03/19 00:45:29;;;;;;;;;;;;;;;10.19;94.94;101024.34;5002378;28;19921;-65
2023/03/19 00:47:54;;;;;;;;;;;;;;;10.18;94.92;101025.34;5024979;28;19921;-66
2023/03/19 00:50:20;;;;;;;;;;;;;;;10.16;95.04;101035.28;5026760;28;19917;-65
2023/03/19 00:52:45;;;;;;;;;;;;;;;10.13;94.91;101032.13;5026931;28;20361;-65
2023/03/19 00:55:11;;;;;;;;;;;;;;;10.11;95.04;101028.78;5025500;28;19928;-65
2023/03/19 00:57:36;;;;;;;;;;;;;;;10.09;95.14;101020.97;5027762;28;20609;-65
2023/03/19 01:00:01;;;;;;;;;;;;;;;10.08;95.19;101021.97;5026520;28;20039;-65
2023/03/19 01:02:27;;;;;;;;;;;;;;;10.06;95.41;101029.28;5024987;28;19924;-65
2023/03/19 01:04:52;;;;;;;;;;;;;;;10.04;95.14;101033.09;5027359;28;19924;-65
2023/03/19 01:07:17;;;;;;;;;;;;;;;10.02;95.47;101025.28;5028125;28;19917;-64
2023/03/19 01:09:42;;;;;;;;;;;;;;;10.02;95.87;101025.28;5026470;28;20383;-64
2023/03/19 01:12:08;;;;;;;;;;;;;;;10.02;95.98;101030.59;5026687;28;19925;-65
2023/03/19 01:14:33;;;;;;;;;;;;;;;10.02;95.84;101035.06;5023127;28;19921;-65
2023/03/19 01:16:59;;;;;;;;;;;;;;;9.99;96.21;101030.09;5025295;28;19921;-65
2023/03/19 01:19:24;;;;;;;;;;;;;;;10.00;96.47;101031.75;5018073;28;20365;-65
2023/03/19 01:21:49;;;;;;;;;;;;;;;10.00;96.37;101032.59;5023855;28;19917;-65
2023/03/19 01:24:15;;;;;;;;;;;;;;;9.99;96.50;101025.63;5015561;28;19952;-65
2023/03/19 01:26:40;;;;;;;;;;;;;;;9.99;96.61;101022.13;5022289;28;20572;-65
2023/03/19 01:29:06;;;;;;;;;;;;;;;10.00;96.72;101023.78;5019823;28;19923;-65
2023/03/19 01:31:31;;;;;;;;;;;;;;;10.00;96.81;101023.78;5027187;28;20357;-65
2023/03/19 01:33:56;;;;;;;;;;;;;;;10.00;96.94;101032.59;5023245;28;19961;-65
2023/03/19 01:36:21;;;;;;;;;;;;;;;10.02;96.99;101032.41;5019501;28;19948;-65
2023/03/19 01:38:46;;;;;;;;;;;;;;;10.01;97.29;101022.78;5023628;28;19917;-65
2023/03/19 01:41:12;;;;;;;;;;;;;;;10.02;97.25;101027.09;5026321;28;19917;-65
2023/03/19 01:43:37;;;;;;;;;;;;;;;10.01;97.26;101038.72;5026122;28;19913;-65
2023/03/19 01:46:24;;;;;;;;;;;;;;;10.01;97.59;101030.75;5030178;28;20421;-65
2023/03/19 01:48:52;;;;;;;;;;;;;;;9.99;97.45;101025.63;5025247;28;20580;-65
2023/03/19 01:51:19;;;;;;;;;;;;;;;9.99;97.49;101038.06;5024499;28;19917;-65
2023/03/19 01:53:46;;;;;;;;;;;;;;;9.99;98.08;101025.63;5022974;28;19921;-65
2023/03/19 01:56:17;;;;;;;;;;;;;;;9.99;97.99;101025.63;5028378;28;19925;-65
2023/03/19 01:58:45;;;;;;;;;;;;;;;9.97;97.96;101030.25;5030523;28;19928;-65
2023/03/19 02:01:10;;;;;;;;;;;;;;;9.97;98.41;101030.25;5025919;28;19917;-65
2023/03/19 02:03:36;;;;;;;;;;;;;;;9.97;98.50;101029.44;5025284;28;19929;-65
2023/03/19 02:06:01;;;;;;;;;;;;;;;9.98;98.55;101023.13;5027690;28;19921;-65
2023/03/19 02:08:27;;;;;;;;;;;;;;;9.98;98.90;101029.25;5021334;28;20399;-65
2023/03/19 02:10:54;;;;;;;;;;;;;;;9.97;98.94;101027.59;5029319;28;19920;-65
2023/03/19 02:13:20;;;;;;;;;;;;;;;9.96;99.13;101022.47;5029883;28;20008;-66
2023/03/19 02:15:45;;;;;;;;;;;;;;;9.94;99.41;101028.75;5022613;28;20008;-65
2023/03/19 02:18:11;;;;;;;;;;;;;;;9.92;99.56;101017.47;5026271;28;19929;-65
2023/03/19 02:20:42;;;;;;;;;;;;;;;9.91;99.61;101020.28;5022623;28;19927;-65
2023/03/19 02:23:26;;;;;;;;;;;;;;;9.90;100.00;101021.28;5030506;28;20022;-65
2023/03/19 02:26:02;;;;;;;;;;;;;;;9.91;100.00;101022.94;5028149;28;20370;-65
2023/03/19 02:28:29;;;;;;;;;;;;;;;9.89;100.00;101032.88;5017842;28;19924;-65
2023/03/19 02:30:54;;;;;;;;;;;;;;;9.88;100.00;101037.38;5025038;28;20401;-65
2023/03/19 02:33:19;;;;;;;;;;;;;;;9.85;100.00;101029.72;5020583;28;19966;-65
2023/03/19 02:35:46;;;;;;;;;;;;;;;9.85;100.00;101034.22;5022445;28;19997;-64
2023/03/19 02:38:12;;;;;;;;;;;;;;;9.85;100.00;101034.22;5026793;28;19924;-65
2023/03/19 02:40:40;;;;;;;;;;;;;;;9.86;100.00;101030.56;5021643;28;19932;-65
2023/03/19 02:43:05;;;;;;;;;;;;;;;9.86;100.00;101030.56;5029846;28;19924;-65
2023/03/19 02:45:31;;;;;;;;;;;;;;;9.84;100.00;101037.84;5023787;28;19918;-65
2023/03/19 02:47:57;;;;;;;;;;;;;;;9.85;100.00;101039.50;5021989;28;19917;-65
2023/03/19 02:50:22;;;;;;;;;;;;;;;9.86;100.00;101046.47;5027179;28;19921;-65
2023/03/19 02:52:47;;;;;;;;;;;;;;;9.85;100.00;101048.31;5019720;28;19921;-65
2023/03/19 02:55:12;;;;;;;;;;;;;;;9.84;100.00;101044.00;5022470;28;20377;-64
2023/03/19 02:57:37;;;;;;;;;;;;;;;9.85;100.00;101037.69;5024928;28;19932;-65
2023/03/19 03:00:03;;;;;;;;;;;;;;;9.84;100.00;101043.16;5028871;28;19917;-65
2023/03/19 03:02:29;;;;;;;;;;;;;;;9.83;100.00;101042.31;5022816;28;19917;-64
2023/03/19 03:04:55;;;;;;;;;;;;;;;9.83;100.00;101041.47;5025625;28;20405;-65
2023/03/19 03:07:20;;;;;;;;;;;;;;;9.83;100.00;101046.78;5028374;28;19917;-65
2023/03/19 03:09:46;;;;;;;;;;;;;;;9.82;100.00;101047.75;5026016;28;19917;-64
2023/03/19 03:12:11;;;;;;;;;;;;;;;9.82;100.00;101045.94;5026744;28;19925;-64
2023/03/19 03:14:36;;;;;;;;;;;;;;;9.82;100.00;101045.13;5021497;28;19926;-65
2023/03/19 03:17:02;;;;;;;;;;;;;;;9.81;100.00;101044.28;5025966;28;19928;-65
2023/03/19 03:19:27;;;;;;;;;;;;;;;9.82;100.00;101039.81;5024613;28;19929;-64
2023/03/19 03:21:52;;;;;;;;;;;;;;;9.81;100.00;101038.97;5025230;28;19947;-64
2023/03/19 03:24:17;;;;;;;;;;;;;;;9.80;100.00;101049.75;5022511;28;19917;-64
2023/03/19 03:26:43;;;;;;;;;;;;;;;9.80;100.00;101047.94;5026169;28;19917;-65
2023/03/19 03:29:08;;;;;;;;;;;;;;;9.80;100.00;101049.75;5024792;28;19925;-64
2023/03/19 03:31:33;;;;;;;;;;;;;;;9.78;100.00;101057.88;5026078;28;19929;-64
2023/03/19 03:33:59;;;;;;;;;;;;;;;9.77;100.00;101052.72;5025308;28;19921;-65
2023/03/19 03:36:24;;;;;;;;;;;;;;;9.74;100.00;101053.88;5024979;28;19925;-64
2023/03/19 03:38:49;;;;;;;;;;;;;;;9.71;100.00;101046.25;5026400;28;19976;-65
2023/03/19 03:41:15;;;;;;;;;;;;;;;9.69;100.00;101048.22;5027983;28;20002;-64
2023/03/19 03:43:40;;;;;;;;;;;;;;;9.66;100.00;101053.84;5022628;28;19917;-64
2023/03/19 03:46:06;;;;;;;;;;;;;;;9.60;100.00;101054.50;5023343;28;19925;-64
2023/03/19 03:48:31;;;;;;;;;;;;;;;9.58;100.00;101054.66;5026601;28;19944;-65
2023/03/19 03:50:56;;;;;;;;;;;;;;;9.52;100.00;101049.97;5028042;28;19921;-64
2023/03/19 03:53:22;;;;;;;;;;;;;;;9.48;100.00;101056.56;5026133;28;20409;-65
2023/03/19 03:55:48;;;;;;;;;;;;;;;9.43;100.00;101056.22;5027117;28;19924;-64
2023/03/19 03:58:13;;;;;;;;;;;;;;;9.40;100.00;101051.25;5024106;28;19921;-65
2023/03/19 04:00:38;;;;;;;;;;;;;;;9.37;100.00;101056.84;5021740;28;19963;-65
2023/03/19 04:03:03;;;;;;;;;;;;;;;9.33;100.00;101055.50;5019386;28;19925;-65
2023/03/19 04:05:29;;;;;;;;;;;;;;;9.30;100.00;101064.63;5025512;28;19921;-65
2023/03/19 04:07:55;;;;;;;;;;;;;;;9.27;100.00;101056.97;5027017;28;19960;-64
2023/03/19 04:10:20;;;;;;;;;;;;;;;9.24;100.00;101059.09;5022655;28;19921;-65
2023/03/19 04:12:45;;;;;;;;;;;;;;;9.19;100.00;101056.06;5021104;28;19926;-65
2023/03/19 04:15:11;;;;;;;;;;;;;;;9.15;100.00;101055.56;5024916;28;19924;-64
2023/03/19 04:17:37;;;;;;;;;;;;;;;9.12;100.00;101063.00;5026015;28;19917;-65
2023/03/19 04:20:03;;;;;;;;;;;;;;;9.08;100.00;101062.47;5028600;28;20410;-65
2023/03/19 04:22:28;;;;;;;;;;;;;;;9.05;100.00;101061.97;5024039;28;20607;-64
2023/03/19 04:24:53;;;;;;;;;;;;;;;9.03;100.00;101069.22;5025484;28;19952;-65
2023/03/19 04:27:18;;;;;;;;;;;;;;;8.99;100.00;101069.53;5025601;28;19917;-65
2023/03/19 04:29:44;;;;;;;;;;;;;;;8.96;100.00;101071.66;5021131;28;20286;-65
2023/03/19 04:32:09;;;;;;;;;;;;;;;8.92;100.00;101078.25;5024947;28;19921;-65
2023/03/19 04:34:34;;;;;;;;;;;;;;;8.89;100.00;101067.97;5024225;28;19962;-65
2023/03/19 04:37:00;;;;;;;;;;;;;;;8.86;100.00;101066.44;5020225;28;20022;-65
2023/03/19 04:39:25;;;;;;;;;;;;;;;8.83;100.00;101064.13;5028015;28;19994;-64
2023/03/19 04:41:51;;;;;;;;;;;;;;;8.83;100.00;101064.13;5022088;28;19925;-64
2023/03/19 04:44:16;;;;;;;;;;;;;;;8.79;100.00;101062.75;5027339;28;19921;-64
2023/03/19 04:46:43;;;;;;;;;;;;;;;8.76;100.00;101070.19;5026097;28;20385;-65
2023/03/19 04:49:08;;;;;;;;;;;;;;;8.73;100.00;101073.13;5028426;28;19921;-65
2023/03/19 04:51:34;;;;;;;;;;;;;;;8.74;100.00;101075.63;5020267;28;19921;-64
2023/03/19 04:53:59;;;;;;;;;;;;;;;8.73;100.00;101073.97;5025747;28;20030;-65
2023/03/19 04:56:25;;;;;;;;;;;;;;;8.73;100.00;101073.13;5026273;28;20052;-65
2023/03/19 04:58:50;;;;;;;;;;;;;;;8.72;100.00;101080.25;5028394;28;19967;-64
2023/03/19 05:01:16;;;;;;;;;;;;;;;8.73;100.00;101086.38;5027348;28;20007;-64
2023/03/19 05:03:41;;;;;;;;;;;;;;;8.75;100.00;101084.41;5025384;28;20015;-64
2023/03/19 05:06:06;;;;;;;;;;;;;;;8.77;100.00;101088.56;5026666;28;20062;-65
2023/03/19 05:08:31;;;;;;;;;;;;;;;8.78;100.00;101095.53;5023372;28;19928;-65
2023/03/19 05:10:56;;;;;;;;;;;;;;;8.78;100.00;101097.34;5018796;28;19924;-64
2023/03/19 05:13:22;;;;;;;;;;;;;;;8.77;100.00;101098.31;5024372;28;19960;-65
2023/03/19 05:15:47;;;;;;;;;;;;;;;8.74;100.00;101099.47;5029653;28;19917;-65
2023/03/19 05:18:12;;;;;;;;;;;;;;;8.74;100.00;101101.28;5029401;28;19940;-65
2023/03/19 05:20:38;;;;;;;;;;;;;;;8.72;100.00;101104.09;5026890;28;19917;-65
2023/03/19 05:23:04;;;;;;;;;;;;;;;8.70;100.00;101103.41;5020966;28;19917;-65
2023/03/19 05:25:29;;;;;;;;;;;;;;;8.70;100.00;101100.75;5028144;28;19987;-65
2023/03/19 05:27:54;;;;;;;;;;;;;;;8.69;100.00;101104.38;5026491;28;20370;-64
2023/03/19 05:30:20;;;;;;;;;;;;;;;8.67;100.00;101111.63;5029386;28;19944;-64
2023/03/19 05:32:45;;;;;;;;;;;;;;;8.66;100.00;101107.31;5029352;28;19940;-65
2023/03/19 05:35:10;;;;;;;;;;;;;;;8.66;100.00;101109.97;5027390;28;20051;-64
2023/03/19 05:37:35;;;;;;;;;;;;;;;8.65;100.00;101113.59;5027853;28;19992;-65
2023/03/19 05:40:01;;;;;;;;;;;;;;;8.61;100.00;101117.53;5027670;28;20444;-65
2023/03/19 05:42:26;;;;;;;;;;;;;;;8.57;100.00;101109.06;5024698;28;19917;-65
2023/03/19 05:44:51;;;;;;;;;;;;;;;8.54;100.00;101116.47;5023582;28;19921;-64
2023/03/19 05:47:16;;;;;;;;;;;;;;;8.52;100.00;101113.97;5025736;28;20330;-64
2023/03/19 05:49:42;;;;;;;;;;;;;;;8.50;100.00;101115.13;5028056;28;20394;-65
2023/03/19 05:52:07;;;;;;;;;;;;;;;8.48;100.00;101119.72;5025255;28;19925;-65
2023/03/19 05:54:33;;;;;;;;;;;;;;;8.47;100.00;101124.19;5029265;28;20017;-65
2023/03/19 05:56:58;;;;;;;;;;;;;;;8.44;100.00;101127.13;5030482;28;19924;-65
2023/03/19 05:59:23;;;;;;;;;;;;;;;8.42;100.00;101133.56;5029545;28;19918;-65
2023/03/19 06:01:48;;;;;;;;;;;;;;;8.40;100.00;101132.88;5019753;28;20361;-64
2023/03/19 06:04:14;;;;;;;;;;;;;;;8.41;100.00;101137.19;5027453;28;19971;-64
2023/03/19 06:06:39;;;;;;;;;;;;;;;8.43;100.00;101140.53;5019780;28;19917;-65
2023/03/19 06:09:05;;;;;;;;;;;;;;;8.42;100.00;101141.50;5021959;28;19978;-64
2023/03/19 06:11:30;;;;;;;;;;;;;;;8.41;100.00;101143.31;5022474;28;19921;-65
2023/03/19 06:13:56;;;;;;;;;;;;;;;8.37;100.00;101140.09;5027770;28;19929;-64
2023/03/19 06:16:21;;;;;;;;;;;;;;;8.34;100.00;101143.06;5026586;28;20583;-64
2023/03/19 06:18:46;;;;;;;;;;;;;;;8.29;100.00;101142.63;5022374;28;20418;-64
2023/03/19 06:21:11;;;;;;;;;;;;;;;8.28;100.00;101150.72;5026399;28;19964;-64
2023/03/19 06:23:37;;;;;;;;;;;;;;;8.31;100.00;101150.44;5029254;28;20002;-64
2023/03/19 06:26:03;;;;;;;;;;;;;;;8.35;100.00;101154.47;5026511;28;19921;-64
2023/03/19 06:28:28;;;;;;;;;;;;;;;8.37;100.00;101155.16;5028802;28;19921;-64
2023/03/19 06:30:54;;;;;;;;;;;;;;;8.42;100.00;101155.56;5020593;28;19917;-64
2023/03/19 06:33:19;;;;;;;;;;;;;;;8.46;100.00;101156.09;5028457;28;20004;-65
2023/03/19 06:35:44;;;;;;;;;;;;;;;8.46;100.00;101161.38;5019442;28;19921;-64
2023/03/19 06:38:09;;;;;;;;;;;;;;;8.47;100.00;101165.69;5025733;28;20013;-64
2023/03/19 06:40:35;;;;;;;;;;;;;;;8.48;100.00;101162.06;5020981;28;19924;-64
2023/03/19 06:43:00;;;;;;;;;;;;;;;8.51;100.00;101167.91;5026290;28;20357;-64
2023/03/19 06:45:25;;;;;;;;;;;;;;;8.53;100.00;101171.22;5026465;28;19920;-64
2023/03/19 06:47:51;;;;;;;;;;;;;;;8.55;100.00;101177.19;5030092;28;21752;-64
2023/03/19 06:50:16;;;;;;;;;;;;;;;8.58;100.00;101186.66;5025632;28;19960;-64
2023/03/19 06:52:42;;;;;;;;;;;;;;;8.62;100.00;101188.84;5027430;28;20019;-65
2023/03/19 06:55:08;;;;;;;;;;;;;;;8.68;100.00;101187.44;5026714;28;19921;-65
2023/03/19 06:57:33;;;;;;;;;;;;;;;8.74;100.00;101197.44;5027376;28;19975;-65
2023/03/19 06:59:59;;;;;;;;;;;;;;;8.79;100.00;101192.50;5024666;28;19914;-65
2023/03/19 07:02:25;;;;;;;;;;;;;;;8.86;100.00;101193.56;5029735;28;19914;-65
2023/03/19 07:04:51;;;;;;;;;;;;;;;8.94;100.00;101198.09;5027050;28;19917;-65
2023/03/19 07:07:16;;;;;;;;;;;;;;;8.99;100.00;101198.50;5025453;28;19925;-64
2023/03/19 07:09:41;;;;;;;;;;;;;;;9.00;100.00;101197.53;5023334;28;19917;-64
2023/03/19 07:12:06;;;;;;;;;;;;;;;9.03;100.00;101199.03;5025838;28;19921;-64
2023/03/19 07:14:32;;;;;;;;;;;;;;;9.05;100.00;101205.00;5021236;28;19917;-64
2023/03/19 07:16:57;;;;;;;;;;;;;;;9.07;100.00;101211.00;5025066;28;20374;-65
2023/03/19 07:19:22;;;;;;;;;;;;;;;9.10;100.00;101210.69;5024366;28;19932;-64
2023/03/19 07:21:47;;;;;;;;;;;;;;;9.12;100.00;101209.53;5017535;28;19968;-64
2023/03/19 07:24:12;;;;;;;;;;;;;;;9.15;100.00;101211.06;5018234;28;19928;-65
2023/03/19 07:26:38;;;;;;;;;;;;;;;9.20;100.00;101217.56;5025191;28;19913;-65
2023/03/19 07:29:03;;;;;;;;;;;;;;;9.27;100.00;101220.47;5024703;28;19921;-64
2023/03/19 07:31:28;;;;;;;;;;;;;;;9.33;100.00;101225.13;5025709;28;20030;-65
2023/03/19 07:33:53;;;;;;;;;;;;;;;9.37;100.00;101226.50;5022424;28;19979;-64
2023/03/19 07:36:20;;;;;;;;;;;;;;;9.42;100.00;101229.50;5017775;28;19936;-65
2023/03/19 07:38:45;;;;;;;;;;;;;;;9.45;100.00;101234.50;5027125;28;19928;-64
2023/03/19 07:41:10;;;;;;;;;;;;;;;9.56;100.00;101236.94;5029387;28;19935;-65
2023/03/19 07:43:36;;;;;;;;;;;;;;;9.60;100.00;101232.16;5023060;28;19921;-65
2023/03/19 07:46:01;;;;;;;;;;;;;;;9.67;100.00;101237.66;5026947;28;20015;-64
2023/03/19 07:48:27;;;;;;;;;;;;;;;9.73;100.00;101237.03;5026936;28;19912;-65
2023/03/19 07:50:52;;;;;;;;;;;;;;;9.76;100.00;101242.03;5029074;28;19924;-64
2023/03/19 07:53:18;;;;;;;;;;;;;;;9.74;100.00;101239.53;5011842;28;19917;-64
2023/03/19 07:55:43;;;;;;;;;;;;;;;9.79;100.00;101234.59;5022161;28;19920;-65
2023/03/19 07:58:08;;;;;;;;;;;;;;;9.84;100.00;101234.97;5022449;28;19921;-65
2023/03/19 08:00:34;;;;;;;;;;;;;;;9.82;100.00;101238.75;5028266;28;19917;-64
2023/03/19 08:02:59;;;;;;;;;;;;;;;9.78;100.00;101246.19;5019324;28;19917;-65
2023/03/19 08:05:24;;;;;;;;;;;;;;;9.74;100.00;101239.53;5024653;28;19956;-64
2023/03/19 08:07:50;;;;;;;;;;;;;;;9.73;100.00;101252.94;5017527;28;19933;-65
2023/03/19 08:10:15;;;;;;;;;;;;;;;9.74;100.00;101250.13;5026966;28;19975;-64
2023/03/19 08:12:41;;;;;;;;;;;;;;;9.74;100.00;101258.09;5023674;28;20392;-64
2023/03/19 08:15:07;;;;;;;;;;;;;;;9.75;99.85;101253.63;5016957;28;19925;-64
2023/03/19 08:17:37;;;;;;;;;;;;;;;9.67;99.84;101254.41;5020942;28;20601;-64
2023/03/19 08:20:03;;;;;;;;;;;;;;;9.64;99.70;101257.38;5018629;28;19913;-65
2023/03/19 08:22:29;;;;;;;;;;;;;;;9.66;99.66;101258.03;5019429;28;20060;-64
2023/03/19 08:24:54;;;;;;;;;;;;;;;9.74;99.68;101266.03;5016104;28;20011;-64
2023/03/19 08:27:20;;;;;;;;;;;;;;;9.86;100.00;101264.00;5014469;28;20012;-64
2023/03/19 08:29:45;;;;;;;;;;;;;;;10.01;100.00;101266.91;5024873;28;20039;-64
2023/03/19 08:32:10;;;;;;;;;;;;;;;10.14;100.00;101267.31;5013705;28;20345;-63
2023/03/19 08:34:35;;;;;;;;;;;;;;;10.27;99.62;101274.88;5016647;28;19924;-65
2023/03/19 08:37:01;;;;;;;;;;;;;;;10.38;98.80;101275.41;5025810;28;19956;-65
2023/03/19 08:39:26;;;;;;;;;;;;;;;10.42;98.38;101270.66;5016794;28;19920;-64
2023/03/19 08:41:51;;;;;;;;;;;;;;;10.53;98.37;101278.31;5022787;28;19917;-65
2023/03/19 08:44:16;;;;;;;;;;;;;;;10.53;97.17;101278.31;5020668;28;19928;-65
2023/03/19 08:46:41;;;;;;;;;;;;;;;10.59;97.10;101282.16;5029013;28;20548;-64
2023/03/19 08:49:07;;;;;;;;;;;;;;;10.68;97.14;101282.03;5029020;28;19925;-64
2023/03/19 08:51:32;;;;;;;;;;;;;;;10.77;97.54;101283.75;5022518;28;19927;-65
2023/03/19 08:53:57;;;;;;;;;;;;;;;10.96;97.19;101285.28;5016398;28;19917;-64
2023/03/19 08:56:22;;;;;;;;;;;;;;;11.09;97.47;101290.97;5025645;28;19924;-65
2023/03/19 08:58:47;;;;;;;;;;;;;;;11.04;96.30;101297.78;5024710;28;19916;-65
2023/03/19 09:01:13;;;;;;;;;;;;;;;10.90;94.73;101287.75;5027981;28;19931;-65
2023/03/19 09:03:39;;;;;;;;;;;;;;;10.80;94.62;101296.69;5026870;28;19925;-64
2023/03/19 09:06:05;;;;;;;;;;;;;;;10.74;94.98;101297.34;5027469;28;19924;-65
2023/03/19 09:08:30;;;;;;;;;;;;;;;10.70;94.38;101303.16;5023016;28;19921;-65
2023/03/19 09:10:56;;;;;;;;;;;;;;;10.67;94.43;101301.63;5009334;28;19914;-64
2023/03/19 09:13:21;;;;;;;;;;;;;;;10.61;93.74;101310.22;5017852;28;19917;-64
2023/03/19 09:15:47;;;;;;;;;;;;;;;10.60;93.32;101310.38;5027129;28;19986;-65
2023/03/19 09:18:12;;;;;;;;;;;;;;;10.64;93.50;101311.72;5016192;28;20443;-65
2023/03/19 09:20:37;;;;;;;;;;;;;;;10.73;93.53;101316.09;5021334;28;19936;-64
2023/03/19 09:23:02;;;;;;;;;;;;;;;10.79;93.76;101315.47;5021018;28;19917;-64
2023/03/19 09:25:28;;;;;;;;;;;;;;;10.77;93.57;101322.75;5025671;28;20413;-65
2023/03/19 09:27:53;;;;;;;;;;;;;;;10.80;93.50;101328.56;5019065;28;19963;-65
2023/03/19 09:30:18;;;;;;;;;;;;;;;10.92;93.18;101336.25;5027154;28;19914;-64
2023/03/19 09:32:43;;;;;;;;;;;;;;;10.87;92.58;101323.44;5018221;28;20016;-64
2023/03/19 09:35:09;;;;;;;;;;;;;;;10.80;91.67;101320.59;5016840;28;19983;-65
2023/03/19 09:37:34;;;;;;;;;;;;;;;10.77;91.56;101328.91;5022135;28;19914;-64
2023/03/19 09:39:59;;;;;;;;;;;;;;;10.83;91.92;101328.25;5021515;28;20318;-64
2023/03/19 09:42:43;;;;;;;;;;;;;;;10.99;92.13;101337.28;5023000;28;20552;-65
2023/03/19 09:45:12;;;;;;;;;;;;;;;11.09;92.12;101340.63;5019244;28;20448;-64
2023/03/19 09:47:38;;;;;;;;;;;;;;;11.13;91.68;101341.97;5022487;28;20007;-65
2023/03/19 09:50:15;;;;;;;;;;;;;;;11.23;91.67;101342.66;5021957;28;20343;-64
2023/03/19 09:52:48;;;;;;;;;;;;;;;11.34;91.19;101334.38;5021114;28;19917;-64
2023/03/19 09:55:22;;;;;;;;;;;;;;;11.58;90.93;101348.72;5018788;28;19957;-64
2023/03/19 09:57:48;;;;;;;;;;;;;;;11.57;89.63;101339.09;5023317;28;20011;-65
2023/03/19 10:00:16;;;;;;;;;;;;;;;11.62;89.61;101344.75;5021308;28;20330;-65
2023/03/19 10:02:42;;;;;;;;;;;;;;;11.71;88.89;101341.91;5020658;28;19961;-65
2023/03/19 10:05:10;;;;;;;;;;;;;;;11.80;88.73;101337.44;5020408;28;19952;-65
2023/03/19 10:07:49;;;;;;;;;;;;;;;11.99;88.87;101337.13;5023321;28;19919;-65
2023/03/19 10:10:21;;;;;;;;;;;;;;;12.12;88.67;101349.06;5022292;28;20016;-65
2023/03/19 10:12:49;;;;;;;;;;;;;;;12.17;87.81;101347.59;5021971;28;19921;-65
2023/03/19 10:15:18;;;;;;;;;;;;;;;12.28;87.51;101347.22;5028487;28;20386;-65
2023/03/19 10:17:43;;;;;;;;;;;;;;;12.41;87.95;101352.03;5023686;28;19920;-65
2023/03/19 10:20:20;;;;;;;;;;;;;;;12.45;86.97;101350.72;5021284;28;20440;-65
2023/03/19 10:22:48;;;;;;;;;;;;;;;12.59;87.05;101349.97;5025647;28;19971;-65
2023/03/19 10:25:25;;;;;;;;;;;;;;;12.63;86.61;101353.97;5021093;28;20020;-65
2023/03/19 10:27:54;;;;;;;;;;;;;;;12.67;85.24;101352.63;5020593;28;19996;-65
2023/03/19 10:30:19;;;;;;;;;;;;;;;12.67;84.70;101354.44;5020258;28;20318;-65
2023/03/19 10:32:48;;;;;;;;;;;;;;;12.67;83.90;101355.28;5015762;28;19921;-65
2023/03/19 10:35:18;;;;;;;;;;;;;;;12.64;83.91;101363.63;5024319;28;19917;-65
2023/03/19 10:37:44;;;;;;;;;;;;;;;12.63;84.15;101369.94;5028612;28;19948;-64
2023/03/19 10:40:36;;;;;;;;;;;;;;;12.58;83.96;101366.16;5023508;28;20341;-65
2023/03/19 10:43:04;;;;;;;;;;;;;;;12.48;83.75;101369.00;5019377;28;19967;-65
2023/03/19 10:45:31;;;;;;;;;;;;;;;12.39;83.74;101370.00;5026395;28;19917;-65
2023/03/19 10:47:57;;;;;;;;;;;;;;;12.32;83.88;101369.84;5025569;28;19917;-64
2023/03/19 10:50:32;;;;;;;;;;;;;;;12.33;84.75;101376.00;5025970;28;19921;-64
2023/03/19 10:53:13;;;;;;;;;;;;;;;12.37;85.03;101372.00;5018619;28;20294;-64
2023/03/19 10:55:46;;;;;;;;;;;;;;;12.37;84.71;101370.19;5019862;28;19917;-65
2023/03/19 10:58:16;;;;;;;;;;;;;;;12.39;84.83;101378.00;5019445;28;19923;-65
2023/03/19 11:00:44;;;;;;;;;;;;;;;12.42;84.92;101375.00;5021724;28;20311;-65
2023/03/19 11:03:27;;;;;;;;;;;;;;;12.46;85.58;101381.66;5016900;28;20429;-64
2023/03/19 11:06:02;;;;;;;;;;;;;;;12.57;85.71;101383.13;5017482;28;19917;-65
2023/03/19 11:08:28;;;;;;;;;;;;;;;12.59;86.00;101383.78;5021749;28;20386;-64
2023/03/19 11:10:53;;;;;;;;;;;;;;;12.67;86.33;101381.09;5017755;28;20012;-65
2023/03/19 11:13:25;;;;;;;;;;;;;;;12.75;86.18;101380.25;5021510;28;19929;-64
2023/03/19 11:15:51;;;;;;;;;;;;;;;12.80;85.54;101377.91;5021230;28;20001;-64
2023/03/19 11:18:21;;;;;;;;;;;;;;;12.77;84.21;101379.09;5017380;28;20356;-65
2023/03/19 11:20:54;;;;;;;;;;;;;;;12.80;84.47;101385.91;5025285;28;19921;-65
2023/03/19 11:23:20;;;;;;;;;;;;;;;12.87;83.93;101389.53;5022811;28;20382;-65
2023/03/19 11:25:45;;;;;;;;;;;;;;;12.98;84.34;101389.16;5025945;28;19923;-65
2023/03/19 11:28:12;;;;;;;;;;;;;;;13.16;84.57;101399.59;5019425;28;19920;-65
2023/03/19 11:30:47;;;;;;;;;;;;;;;13.31;84.88;101390.72;5014099;28;19965;-64
2023/03/19 11:33:15;;;;;;;;;;;;;;;13.45;83.98;101393.63;5019453;28;19921;-65
2023/03/19 11:35:43;;;;;;;;;;;;;;;13.54;83.32;101392.56;5021931;28;19917;-65
2023/03/19 11:38:32;;;;;;;;;;;;;;;13.63;83.01;101396.88;5018172;28;19917;-64
2023/03/19 11:41:17;;;;;;;;;;;;;;;13.86;82.88;101384.34;5015256;28;20003;-64
2023/03/19 11:43:48;;;;;;;;;;;;;;;14.04;82.47;101393.91;5023269;28;20007;-65
2023/03/19 11:46:24;;;;;;;;;;;;;;;14.25;82.35;101391.38;5019949;28;19925;-65
2023/03/19 11:48:49;;;;;;;;;;;;;;;14.41;81.58;101398.38;5017793;28;19932;-64
2023/03/19 11:51:28;;;;;;;;;;;;;;;14.44;80.13;101400.72;5021338;28;19917;-65
2023/03/19 11:53:54;;;;;;;;;;;;;;;14.47;80.84;101390.53;5015880;28;20539;-65
2023/03/19 11:56:39;;;;;;;;;;;;;;;14.58;80.33;101391.91;5026651;28;19917;-65
2023/03/19 11:59:26;;;;;;;;;;;;;;;14.75;79.72;101396.09;5017627;28;19913;-65
2023/03/19 12:01:54;;;;;;;;;;;;;;;14.98;79.88;101393.28;5019051;28;19917;-65
2023/03/19 12:04:28;;;;;;;;;;;;;;;15.12;79.26;101395.13;5019977;28;19924;-65
2023/03/19 12:07:00;;;;;;;;;;;;;;;15.16;78.53;101392.91;5021582;28;19929;-65
2023/03/19 12:09:44;;;;;;;;;;;;;;;15.07;77.92;101396.72;5022345;28;19957;-65
2023/03/19 12:12:12;;;;;;;;;;;;;;;15.01;77.90;101392.09;5016520;28;19917;-65
2023/03/19 12:14:43;;;;;;;;;;;;;;;14.99;77.81;101394.94;5024074;28;19913;-65
2023/03/19 12:17:20;;;;;;;;;;;;;;;14.89;76.92;101399.75;5024791;28;19920;-65
2023/03/19 12:20:12;;;;;;;;;;;;;;;14.64;76.28;101393.84;5021328;28;19939;-65
2023/03/19 12:22:37;;;;;;;;;;;;;;;14.55;77.58;101392.28;5019469;28;19979;-65
2023/03/19 12:25:21;;;;;;;;;;;;;;;14.64;77.19;101387.66;5018126;28;19921;-65
2023/03/19 12:27:55;;;;;;;;;;;;;;;14.77;77.29;101391.38;5016976;28;19921;-65
2023/03/19 12:30:40;;;;;;;;;;;;;;;14.80;76.80;101395.53;5023022;28;20375;-65
2023/03/19 12:33:25;;;;;;;;;;;;;;;14.84;76.86;101394.13;5017838;28;19928;-65
2023/03/19 12:35:53;;;;;;;;;;;;;;;14.86;76.86;101400.13;5012631;28;20370;-65
2023/03/19 12:38:18;;;;;;;;;;;;;;;14.85;76.65;101393.94;5027796;28;19917;-65